Time;durP1;ratioP1;P1;durP2;ratioP2;P2;SDS_P1;SDS_P2;PMS_P1;PMS_P2;Temp;Humidity;BMP_temperature;BMP_pressure;BME280_temperature;BME280_humidity;BME280_pressure;Samples;Min_cycle;Max_cycle;Signal;HPM_P1;HPM_P2
2023/09/12 00:01:06;;;;;;;13.30;7.30;;;19.00;99.90;;;;;;5088122;28;20182;-71
2023/09/12 00:03:32;;;;;;;14.20;6.67;;;18.90;99.90;;;;;;5088077;28;20244;-71
2023/09/12 00:05:59;;;;;;;13.33;7.70;;;18.90;99.90;;;;;;5088447;28;20778;-71
2023/09/12 00:08:26;;;;;;;12.60;7.47;;;18.90;99.90;;;;;;5088523;28;20417;-71
2023/09/12 00:11:11;;;;;;;11.20;7.20;;;18.90;99.90;;;;;;5092189;28;20921;-71
2023/09/12 00:13:41;;;;;;;22.50;8.03;;;18.90;99.90;;;;;;5092778;28;20798;-71
2023/09/12 00:16:10;;;;;;;19.37;8.13;;;18.80;99.90;;;;;;5092152;28;20819;-71
2023/09/12 00:18:37;;;;;;;16.97;8.03;;;18.80;99.90;;;;;;5074240;28;20503;-71
2023/09/12 00:21:03;;;;;;;19.27;7.80;;;18.90;99.90;;;;;;5073740;28;20435;-71
2023/09/12 00:23:28;;;;;;;16.57;7.47;;;18.80;99.90;;;;;;5073670;28;20447;-71
2023/09/12 00:25:54;;;;;;;12.63;6.83;;;18.80;99.90;;;;;;5091894;28;20620;-71
2023/09/12 00:28:20;;;;;;;18.80;7.33;;;18.80;99.90;;;;;;5092295;28;20220;-71
2023/09/12 00:30:46;;;;;;;18.87;8.03;;;18.80;99.90;;;;;;5091940;28;20194;-72
2023/09/12 00:33:12;;;;;;;17.30;7.37;;;18.80;99.90;;;;;;5091873;28;20440;-71
2023/09/12 00:35:38;;;;;;;13.33;6.90;;;18.80;99.90;;;;;;5091753;28;20223;-71
2023/09/12 00:38:03;;;;;;;15.30;7.20;;;18.80;99.90;;;;;;5091682;28;20178;-71
2023/09/12 00:40:29;;;;;;;20.83;7.40;;;18.80;99.90;;;;;;5091836;28;20177;-71
2023/09/12 00:42:55;;;;;;;14.17;7.60;;;18.80;99.90;;;;;;5073192;28;20198;-71
2023/09/12 00:45:21;;;;;;;17.13;8.43;;;18.80;99.90;;;;;;5073373;28;20557;-71
2023/09/12 00:47:48;;;;;;;28.40;7.63;;;18.80;99.90;;;;;;5091553;28;20417;-71
2023/09/12 00:50:14;;;;;;;10.63;7.00;;;18.80;99.90;;;;;;5073494;28;20284;-70
2023/09/12 00:52:41;;;;;;;15.03;8.33;;;18.80;99.90;;;;;;5091881;28;20432;-70
2023/09/12 00:55:07;;;;;;;14.03;6.50;;;18.80;99.90;;;;;;5075371;28;20464;-71
2023/09/12 00:57:34;;;;;;;12.60;7.07;;;18.80;99.90;;;;;;5092607;28;20420;-71
2023/09/12 01:00:10;;;;;;;18.30;7.40;;;18.80;99.90;;;;;;5092282;28;20601;-71
2023/09/12 01:02:37;;;;;;;19.07;6.77;;;18.70;99.90;;;;;;5092167;28;20426;-71
2023/09/12 01:05:05;;;;;;;14.23;6.90;;;18.70;99.90;;;;;;5092309;28;20417;-70
2023/09/12 01:07:30;;;;;;;12.00;6.80;;;18.80;99.90;;;;;;5091934;28;20906;-71
2023/09/12 01:09:56;;;;;;;12.53;6.47;;;18.70;99.90;;;;;;5091947;28;20421;-70
2023/09/12 01:12:22;;;;;;;17.23;6.87;;;18.70;99.90;;;;;;5091772;28;20190;-71
2023/09/12 01:14:48;;;;;;;16.43;8.10;;;18.60;99.90;;;;;;5073541;28;20202;-71
2023/09/12 01:17:14;;;;;;;21.30;7.67;;;18.60;99.90;;;;;;5091768;28;20417;-70
2023/09/12 01:19:39;;;;;;;10.70;6.93;;;18.60;99.90;;;;;;5091103;28;20424;-71
2023/09/12 01:22:21;;;;;;;14.73;7.20;;;18.60;99.90;;;;;;5091308;28;20277;-70
2023/09/12 01:25:06;;;;;;;23.37;7.50;;;18.50;99.90;;;;;;5091125;28;20198;-71
2023/09/12 01:27:52;;;;;;;16.47;7.13;;;18.50;99.90;;;;;;5094018;28;20897;-71
2023/09/12 01:30:21;;;;;;;14.63;7.60;;;18.50;99.90;;;;;;5081020;28;20456;-71
2023/09/12 01:32:48;;;;;;;16.50;7.10;;;18.40;99.90;;;;;;5073909;28;20535;-71
2023/09/12 01:35:14;;;;;;;13.37;6.93;;;18.40;99.90;;;;;;5073030;28;20462;-71
2023/09/12 01:37:39;;;;;;;17.10;7.67;;;18.30;99.90;;;;;;5091368;28;20470;-70
2023/09/12 01:40:06;;;;;;;14.90;6.80;;;18.20;99.90;;;;;;5089866;28;20428;-70
2023/09/12 01:42:38;;;;;;;13.30;6.90;;;18.20;99.90;;;;;;5090587;28;20178;-71
2023/09/12 01:45:05;;;;;;;15.70;8.13;;;18.10;99.90;;;;;;5073019;28;20431;-71
2023/09/12 01:47:33;;;;;;;17.40;7.60;;;18.20;99.90;;;;;;5073173;28;20420;-71
2023/09/12 01:50:00;;;;;;;18.83;6.83;;;18.20;99.90;;;;;;5071985;28;20424;-71
2023/09/12 01:52:26;;;;;;;16.70;7.80;;;18.10;99.90;;;;;;5089240;28;20445;-71
2023/09/12 01:54:53;;;;;;;19.70;8.00;;;18.10;99.90;;;;;;5054199;28;20467;-70
2023/09/12 01:57:22;;;;;;;19.30;7.70;;;18.00;99.90;;;;;;5071003;28;20459;-71
2023/09/12 01:59:49;;;;;;;24.13;8.87;;;18.00;99.90;;;;;;5089156;28;20444;-71
2023/09/12 02:02:16;;;;;;;22.80;7.70;;;18.00;99.90;;;;;;5089192;28;20764;-71
2023/09/12 02:04:46;;;;;;;18.90;7.87;;;18.00;99.90;;;;;;5089305;28;20961;-71
2023/09/12 02:07:12;;;;;;;12.87;7.00;;;17.90;99.90;;;;;;5089227;28;20475;-71
2023/09/12 02:09:37;;;;;;;16.87;7.67;;;17.90;99.90;;;;;;5071091;28;20415;-71
2023/09/12 02:12:03;;;;;;;17.80;8.00;;;17.80;99.90;;;;;;5070881;28;20189;-71
2023/09/12 02:14:29;;;;;;;17.00;8.40;;;17.90;99.90;;;;;;5089586;28;20205;-71
2023/09/12 02:16:54;;;;;;;20.13;7.07;;;17.80;99.90;;;;;;5070874;28;20415;-71
2023/09/12 02:19:20;;;;;;;14.50;7.03;;;17.90;99.90;;;;;;5070982;28;20992;-71
2023/09/12 02:21:46;;;;;;;13.50;7.50;;;17.90;99.90;;;;;;5088938;28;20552;-71
2023/09/12 02:24:11;;;;;;;16.20;8.13;;;17.70;99.90;;;;;;5088905;28;20199;-71
2023/09/12 02:26:37;;;;;;;11.90;7.77;;;17.70;99.90;;;;;;5053824;28;20326;-71
2023/09/12 02:29:05;;;;;;;13.67;7.50;;;17.60;99.90;;;;;;5070694;28;20182;-71
2023/09/12 02:31:31;;;;;;;18.13;8.20;;;17.60;99.90;;;;;;5088166;28;20180;-71
2023/09/12 02:33:56;;;;;;;19.63;8.33;;;17.70;99.90;;;;;;5088793;28;21133;-71
2023/09/12 02:36:22;;;;;;;14.00;7.57;;;17.70;99.90;;;;;;5053898;28;20635;-71
2023/09/12 02:38:47;;;;;;;12.03;8.17;;;17.60;99.90;;;;;;5070664;28;20189;-71
2023/09/12 02:41:13;;;;;;;13.63;6.97;;;17.50;99.90;;;;;;5070436;28;20185;-71
2023/09/12 02:43:39;;;;;;;16.53;7.57;;;17.50;99.90;;;;;;5088657;28;20656;-71
2023/09/12 02:46:04;;;;;;;19.20;8.07;;;17.50;99.90;;;;;;5088672;28;20190;-71
2023/09/12 02:48:30;;;;;;;17.30;8.60;;;17.40;99.90;;;;;;5054005;28;20185;-71
2023/09/12 02:50:55;;;;;;;13.23;7.87;;;17.40;99.90;;;;;;5051122;28;1074626;-71
2023/09/12 02:53:21;;;;;;;16.77;7.67;;;17.40;99.90;;;;;;5071151;28;20460;-71
2023/09/12 02:55:46;;;;;;;11.63;7.60;;;17.40;99.90;;;;;;5089610;28;20611;-71
2023/09/12 02:58:12;;;;;;;16.63;7.40;;;17.40;99.90;;;;;;5071918;28;20193;-71
2023/09/12 03:00:40;;;;;;;15.17;7.60;;;17.30;99.90;;;;;;5071764;28;20258;-71
2023/09/12 03:03:05;;;;;;;15.23;7.90;;;17.30;99.90;;;;;;5089853;28;20205;-71
2023/09/12 03:05:31;;;;;;;11.77;7.47;;;17.30;99.90;;;;;;5071645;28;20445;-71
2023/09/12 03:07:56;;;;;;;21.17;8.27;;;17.30;99.90;;;;;;5071632;28;20245;-71
2023/09/12 03:10:22;;;;;;;17.57;8.73;;;17.30;99.90;;;;;;5089697;28;20192;-70
2023/09/12 03:12:47;;;;;;;17.33;7.50;;;17.20;99.90;;;;;;5089436;28;20209;-71
2023/09/12 03:15:13;;;;;;;17.13;8.03;;;17.20;99.90;;;;;;5089089;28;20198;-71
2023/09/12 03:17:39;;;;;;;15.30;8.80;;;17.20;99.90;;;;;;5088781;28;20620;-71
2023/09/12 03:20:08;;;;;;;13.40;7.80;;;17.20;99.90;;;;;;5054025;28;20667;-71
2023/09/12 03:22:37;;;;;;;12.60;7.23;;;17.20;99.90;;;;;;5088753;28;20194;-71
2023/09/12 03:25:03;;;;;;;22.27;8.60;;;17.20;99.90;;;;;;5088975;28;20505;-71
2023/09/12 03:27:29;;;;;;;15.90;7.70;;;17.30;99.90;;;;;;5088605;28;20482;-71
2023/09/12 03:29:54;;;;;;;13.30;7.90;;;17.30;99.90;;;;;;5053503;28;20837;-71
2023/09/12 03:32:20;;;;;;;14.73;8.23;;;17.30;99.90;;;;;;5088458;28;20268;-71
2023/09/12 03:34:46;;;;;;;12.50;8.63;;;17.40;99.90;;;;;;5088310;28;20222;-71
2023/09/12 03:37:11;;;;;;;22.97;8.07;;;17.40;99.90;;;;;;5088417;28;20190;-71
2023/09/12 03:39:37;;;;;;;18.53;8.53;;;17.40;99.90;;;;;;5088417;28;20197;-71
2023/09/12 03:42:02;;;;;;;12.93;7.47;;;17.30;99.90;;;;;;5088494;28;20228;-71
2023/09/12 03:44:28;;;;;;;13.93;8.20;;;17.30;99.90;;;;;;5069260;28;20226;-71
2023/09/12 03:46:54;;;;;;;16.70;8.53;;;17.30;99.90;;;;;;5070150;28;20186;-71
2023/09/12 03:49:19;;;;;;;18.20;8.63;;;17.30;99.90;;;;;;5070326;28;20231;-71
2023/09/12 03:51:45;;;;;;;18.60;8.87;;;17.30;99.90;;;;;;5070048;28;20605;-71
2023/09/12 03:54:10;;;;;;;11.50;9.03;;;17.20;99.90;;;;;;5070094;28;20197;-71
2023/09/12 03:56:36;;;;;;;9.97;7.40;;;17.30;99.90;;;;;;5069721;28;20304;-71
2023/09/12 03:59:02;;;;;;;16.77;9.40;;;17.20;99.90;;;;;;5088365;28;20195;-71
2023/09/12 04:01:28;;;;;;;10.80;7.40;;;17.30;99.90;;;;;;5069997;28;20185;-71
2023/09/12 04:03:54;;;;;;;17.00;8.90;;;17.20;99.90;;;;;;5088133;28;20447;-71
2023/09/12 04:06:19;;;;;;;12.77;8.03;;;17.30;99.90;;;;;;5088247;28;20424;-71
2023/09/12 04:08:45;;;;;;;12.47;8.10;;;17.30;99.90;;;;;;5088317;28;20187;-71
2023/09/12 04:11:11;;;;;;;13.73;7.73;;;17.30;99.90;;;;;;5069762;28;20228;-71
2023/09/12 04:13:36;;;;;;;16.33;9.67;;;17.30;99.90;;;;;;5069842;28;20288;-71
2023/09/12 04:16:02;;;;;;;15.53;9.33;;;17.30;99.90;;;;;;5069803;28;20512;-71
2023/09/12 04:18:28;;;;;;;16.80;8.63;;;17.30;99.90;;;;;;5069881;28;20589;-71
2023/09/12 04:20:57;;;;;;;20.00;8.10;;;17.20;99.90;;;;;;5088143;28;20663;-73
2023/09/12 04:23:24;;;;;;;18.07;9.40;;;17.20;99.90;;;;;;5069687;28;20237;-73
2023/09/12 04:25:49;;;;;;;17.23;8.63;;;17.20;99.90;;;;;;5052526;28;20438;-72
2023/09/12 04:28:15;;;;;;;15.83;9.17;;;17.10;99.90;;;;;;5068843;28;20521;-73
2023/09/12 04:30:41;;;;;;;14.90;8.57;;;17.10;99.90;;;;;;5051616;28;20243;-73
2023/09/12 04:33:07;;;;;;;15.17;10.20;;;17.10;99.90;;;;;;5051949;28;21005;-73
2023/09/12 04:35:35;;;;;;;14.33;9.57;;;17.10;99.90;;;;;;5086660;28;20211;-73
2023/09/12 04:38:01;;;;;;;17.23;8.80;;;17.00;99.90;;;;;;5086657;28;20197;-73
2023/09/12 04:40:27;;;;;;;14.27;9.40;;;17.10;99.90;;;;;;5051635;28;20408;-73
2023/09/12 04:42:53;;;;;;;12.33;8.43;;;17.10;99.90;;;;;;5051652;28;20448;-73
2023/09/12 04:45:19;;;;;;;13.27;9.50;;;17.10;99.90;;;;;;5068536;28;20910;-73
2023/09/12 04:47:44;;;;;;;14.00;9.50;;;17.10;99.90;;;;;;5086577;28;20419;-73
2023/09/12 04:50:11;;;;;;;19.07;9.83;;;17.10;99.90;;;;;;5086886;28;20255;-73
2023/09/12 04:52:37;;;;;;;14.00;9.80;;;17.10;99.90;;;;;;5086711;28;20651;-73
2023/09/12 04:55:03;;;;;;;14.77;10.60;;;17.10;99.90;;;;;;5069590;28;20549;-73
2023/09/12 04:57:30;;;;;;;13.67;9.27;;;17.20;99.90;;;;;;5090694;28;20522;-73
2023/09/12 04:59:57;;;;;;;19.17;9.83;;;17.10;99.90;;;;;;5090688;28;20420;-73
2023/09/12 05:02:22;;;;;;;19.47;10.10;;;17.20;99.90;;;;;;5090792;28;20418;-73
2023/09/12 05:04:48;;;;;;;16.37;10.00;;;17.10;99.90;;;;;;5090563;28;20443;-73
2023/09/12 05:07:14;;;;;;;17.10;9.83;;;17.20;99.90;;;;;;5090357;28;20212;-73
2023/09/12 05:09:39;;;;;;;14.60;9.47;;;17.20;99.90;;;;;;5090331;28;20194;-73
2023/09/12 05:12:05;;;;;;;20.17;10.57;;;17.20;99.90;;;;;;5038678;28;20208;-74
2023/09/12 05:14:30;;;;;;;18.03;9.70;;;17.20;99.90;;;;;;5071561;28;20206;-73
2023/09/12 05:16:56;;;;;;;23.13;11.60;;;17.20;99.90;;;;;;5055458;28;20190;-73
2023/09/12 05:19:23;;;;;;;14.93;10.40;;;17.20;99.90;;;;;;5090451;28;20186;-72
2023/09/12 05:21:48;;;;;;;14.47;9.80;;;17.10;99.90;;;;;;5089923;28;20182;-73
2023/09/12 05:24:14;;;;;;;12.43;9.23;;;17.10;99.90;;;;;;5055235;28;20447;-72
2023/09/12 05:26:39;;;;;;;13.47;10.00;;;17.10;99.90;;;;;;5072135;28;20400;-73
2023/09/12 05:29:05;;;;;;;19.63;9.80;;;17.20;99.90;;;;;;5072044;28;20186;-73
2023/09/12 05:31:31;;;;;;;14.37;9.67;;;17.20;99.90;;;;;;5090290;28;20193;-73
2023/09/12 05:33:57;;;;;;;13.60;9.83;;;17.30;99.90;;;;;;5090094;28;20199;-73
2023/09/12 05:36:22;;;;;;;15.07;9.70;;;17.30;99.90;;;;;;5072116;28;20525;-73
2023/09/12 05:38:48;;;;;;;16.20;9.60;;;17.30;99.90;;;;;;5090229;28;20204;-72
2023/09/12 05:41:14;;;;;;;16.30;10.47;;;17.40;99.90;;;;;;5072194;28;20873;-73
2023/09/12 05:43:39;;;;;;;26.63;9.33;;;17.50;99.90;;;;;;5071617;28;20205;-74
2023/09/12 05:46:05;;;;;;;17.37;9.57;;;17.70;99.90;;;;;;5071862;28;20188;-73
2023/09/12 05:48:30;;;;;;;18.43;9.70;;;17.70;99.90;;;;;;5090156;28;20182;-73
2023/09/12 05:50:56;;;;;;;16.20;8.40;;;17.80;99.90;;;;;;5071844;28;20206;-73
2023/09/12 05:53:21;;;;;;;19.53;10.10;;;18.00;99.90;;;;;;5054821;28;20212;-73
2023/09/12 05:55:47;;;;;;;16.83;9.23;;;18.00;99.90;;;;;;5071328;28;20578;-73
2023/09/12 05:58:13;;;;;;;15.30;9.53;;;18.10;99.90;;;;;;5089741;28;20208;-72
2023/09/12 06:00:38;;;;;;;20.93;9.40;;;18.10;99.90;;;;;;5089955;28;20990;-74
2023/09/12 06:03:04;;;;;;;16.17;10.20;;;18.10;99.90;;;;;;5054714;28;20214;-73
2023/09/12 06:05:30;;;;;;;17.73;8.10;;;18.30;99.90;;;;;;5089607;28;20267;-73
2023/09/12 06:07:55;;;;;;;20.87;10.70;;;18.60;99.90;;;;;;5088545;28;20191;-73
2023/09/12 06:10:21;;;;;;;22.50;9.70;;;18.80;99.90;;;;;;5071075;28;20187;-73
2023/09/12 06:12:47;;;;;;;21.70;9.77;;;19.10;99.90;;;;;;5070633;28;20289;-73
2023/09/12 06:15:12;;;;;;;15.53;8.63;;;19.50;99.90;;;;;;5088847;28;20467;-73
2023/09/12 06:17:38;;;;;;;15.60;9.20;;;19.70;99.90;;;;;;5088916;28;20170;-73
2023/09/12 06:20:06;;;;;;;19.73;10.43;;;20.00;99.90;;;;;;5070495;28;20189;-73
2023/09/12 06:22:32;;;;;;;13.13;9.40;;;20.10;99.90;;;;;;5088733;28;20174;-73
2023/09/12 06:24:57;;;;;;;12.20;8.70;;;20.30;99.90;;;;;;5070873;28;20423;-74
2023/09/12 06:27:23;;;;;;;19.40;9.20;;;20.50;99.90;;;;;;5070651;28;20269;-74
2023/09/12 06:29:49;;;;;;;10.97;8.10;;;20.50;99.90;;;;;;5037507;28;20967;-74
2023/09/12 06:32:18;;;;;;;23.03;8.40;;;20.50;99.90;;;;;;5054240;28;20662;-73
2023/09/12 06:34:44;;;;;;;18.10;8.93;;;20.50;99.90;;;;;;5088939;28;20445;-73
2023/09/12 06:37:11;;;;;;;13.87;7.80;;;20.50;99.90;;;;;;5089040;28;20499;-72
2023/09/12 06:39:37;;;;;;;15.70;8.90;;;20.50;99.90;;;;;;5070544;28;20934;-73
2023/09/12 06:42:02;;;;;;;20.50;8.77;;;20.60;99.90;;;;;;5088850;28;20453;-74
2023/09/12 06:44:28;;;;;;;22.77;9.80;;;20.60;99.90;;;;;;5089128;28;20232;-73
2023/09/12 06:46:53;;;;;;;14.27;9.20;;;20.70;99.90;;;;;;5070554;28;20186;-72
2023/09/12 06:49:19;;;;;;;21.63;10.50;;;20.70;99.90;;;;;;5054041;28;20190;-73
2023/09/12 06:51:45;;;;;;;19.50;10.40;;;20.80;99.90;;;;;;5070800;28;20213;-73
2023/09/12 06:54:10;;;;;;;14.27;10.30;;;20.90;99.90;;;;;;5088766;28;20194;-73
2023/09/12 06:56:37;;;;;;;14.80;9.70;;;20.90;99.90;;;;;;5088567;28;20214;-73
2023/09/12 06:59:04;;;;;;;15.30;8.07;;;20.90;99.90;;;;;;5070605;28;20526;-73
2023/09/12 07:01:30;;;;;;;18.13;9.33;;;21.00;99.90;;;;;;5088574;28;20422;-73
2023/09/12 07:03:56;;;;;;;14.43;8.50;;;21.00;99.90;;;;;;5070762;28;20893;-73
2023/09/12 07:06:22;;;;;;;17.13;9.00;;;20.90;99.90;;;;;;5070426;28;20418;-73
2023/09/12 07:08:48;;;;;;;17.87;8.90;;;20.80;99.90;;;;;;5088570;28;20171;-73
2023/09/12 07:11:14;;;;;;;15.73;9.30;;;20.80;99.90;;;;;;5088305;28;20424;-73
2023/09/12 07:13:39;;;;;;;17.50;8.50;;;20.80;99.90;;;;;;5053083;28;20633;-73
2023/09/12 07:16:05;;;;;;;11.70;8.97;;;20.80;99.90;;;;;;5088086;28;20487;-73
2023/09/12 07:18:34;;;;;;;25.20;8.93;;;20.70;99.90;;;;;;5069804;28;20254;-73
2023/09/12 07:21:04;;;;;;;14.47;8.93;;;20.70;99.90;;;;;;5088162;28;20232;-74
2023/09/12 07:23:30;;;;;;;11.63;8.73;;;20.70;99.90;;;;;;5087974;28;20436;-73
2023/09/12 07:25:59;;;;;;;20.20;9.33;;;20.70;99.90;;;;;;5087887;28;20420;-73
2023/09/12 07:28:30;;;;;;;14.60;8.90;;;20.80;99.90;;;;;;5087702;28;20443;-73
2023/09/12 07:30:56;;;;;;;18.63;8.80;;;20.80;99.90;;;;;;5069615;28;20446;-73
2023/09/12 07:33:22;;;;;;;15.10;8.90;;;20.90;99.90;;;;;;5087670;28;20436;-73
2023/09/12 07:35:51;;;;;;;23.57;9.17;;;20.90;99.90;;;;;;5087688;28;21047;-74
2023/09/12 07:38:17;;;;;;;18.67;8.43;;;21.00;99.90;;;;;;5069513;28;20189;-73
2023/09/12 07:40:45;;;;;;;14.73;8.23;;;21.20;99.90;;;;;;5087810;28;20413;-73
2023/09/12 07:43:11;;;;;;;25.67;9.67;;;21.20;99.90;;;;;;5087750;28;20202;-73
2023/09/12 07:45:37;;;;;;;19.20;9.30;;;21.30;99.90;;;;;;5069726;28;20513;-73
2023/09/12 07:48:07;;;;;;;19.70;8.80;;;21.40;99.90;;;;;;5087828;28;20561;-73
2023/09/12 07:50:33;;;;;;;16.40;9.10;;;21.50;99.90;;;;;;5087553;28;20425;-73
2023/09/12 07:52:59;;;;;;;19.63;8.97;;;21.70;99.90;;;;;;5069652;28;20499;-73
2023/09/12 07:55:24;;;;;;;19.20;9.07;;;21.80;99.90;;;;;;5087213;28;20208;-73
2023/09/12 07:57:50;;;;;;;15.57;9.47;;;21.90;99.90;;;;;;5087174;28;20841;-73
2023/09/12 08:00:16;;;;;;;18.93;9.10;;;22.00;99.90;;;;;;5086861;28;20602;-73
2023/09/12 08:02:42;;;;;;;15.73;9.80;;;22.00;99.90;;;;;;5051995;28;20185;-74
2023/09/12 08:05:08;;;;;;;18.47;9.30;;;22.20;99.90;;;;;;5087291;28;20423;-74
2023/09/12 08:07:34;;;;;;;15.57;8.83;;;22.20;99.90;;;;;;5087263;28;20678;-73
2023/09/12 08:10:00;;;;;;;13.70;8.97;;;22.40;99.90;;;;;;5068755;28;20187;-73
2023/09/12 08:12:27;;;;;;;19.93;9.10;;;22.50;99.90;;;;;;5069103;28;20540;-73
2023/09/12 08:14:54;;;;;;;16.93;10.00;;;22.70;99.90;;;;;;5087124;28;20560;-74
2023/09/12 08:17:19;;;;;;;17.73;9.13;;;22.80;99.90;;;;;;5087124;28;20508;-73
2023/09/12 08:19:45;;;;;;;16.30;8.73;;;23.00;99.90;;;;;;5068854;28;20506;-73
2023/09/12 08:22:12;;;;;;;18.17;9.70;;;23.20;99.90;;;;;;5068738;28;20447;-73
2023/09/12 08:24:39;;;;;;;16.17;8.47;;;23.40;99.90;;;;;;5068695;28;20307;-74
2023/09/12 08:27:05;;;;;;;17.20;8.33;;;23.60;99.90;;;;;;5035818;28;20426;-74
2023/09/12 08:29:32;;;;;;;12.40;8.40;;;23.80;99.90;;;;;;5087238;28;20414;-73
2023/09/12 08:31:58;;;;;;;12.27;8.53;;;24.00;99.90;;;;;;5072572;28;20418;-74
2023/09/12 08:34:23;;;;;;;10.63;8.27;;;24.10;99.90;;;;;;5090346;28;20436;-74
2023/09/12 08:36:49;;;;;;;14.73;8.63;;;24.20;99.90;;;;;;5090593;28;20464;-74
2023/09/12 08:39:16;;;;;;;10.03;8.53;;;24.30;99.90;;;;;;5090482;28;20179;-74
2023/09/12 08:41:46;;;;;;;18.27;9.10;;;24.40;99.90;;;;;;5090506;28;20183;-74
2023/09/12 08:44:13;;;;;;;18.37;9.10;;;24.60;99.90;;;;;;5072548;28;20946;-74
2023/09/12 08:46:44;;;;;;;15.27;9.97;;;24.60;99.90;;;;;;5072463;28;20972;-74
2023/09/12 08:49:10;;;;;;;19.67;9.20;;;24.70;99.90;;;;;;5091097;28;20660;-74
2023/09/12 08:51:37;;;;;;;12.53;9.50;;;24.90;99.90;;;;;;5090857;28;20496;-73
2023/09/12 08:54:04;;;;;;;11.20;8.40;;;25.10;99.90;;;;;;5072676;28;20962;-74
2023/09/12 08:56:30;;;;;;;13.83;9.33;;;25.30;99.90;;;;;;5072838;28;20468;-74
2023/09/12 08:58:58;;;;;;;18.07;9.90;;;25.30;99.90;;;;;;5090968;28;20810;-75
2023/09/12 09:01:27;;;;;;;20.07;9.40;;;25.10;99.90;;;;;;5090931;28;21237;-73
2023/09/12 09:03:53;;;;;;;28.87;10.80;;;25.00;99.90;;;;;;5072239;28;20443;-73
2023/09/12 09:06:21;;;;;;;15.73;10.00;;;25.00;99.90;;;;;;5072438;28;20420;-73
2023/09/12 09:08:49;;;;;;;15.80;8.97;;;25.20;99.90;;;;;;5090603;28;20178;-73
2023/09/12 09:11:14;;;;;;;14.43;8.93;;;25.40;99.90;;;;;;5072339;28;20420;-74
2023/09/12 09:13:40;;;;;;;13.30;8.27;;;25.80;99.90;;;;;;5090872;28;20925;-72
2023/09/12 09:16:16;;;;;;;10.67;9.33;;;26.30;99.90;;;;;;5090482;28;20415;-73
2023/09/12 09:18:57;;;;;;;14.83;9.27;;;26.70;99.90;;;;;;5072052;28;20780;-73
2023/09/12 09:21:29;;;;;;;17.70;9.00;;;27.10;99.90;;;;;;5090628;28;20454;-74
2023/09/12 09:23:55;;;;;;;17.67;10.07;;;27.40;99.90;;;;;;5090509;28;21242;-74
2023/09/12 09:26:21;;;;;;;14.20;9.10;;;27.90;99.90;;;;;;5090606;28;20462;-74
2023/09/12 09:29:07;;;;;;;19.00;9.20;;;28.20;99.90;;;;;;5072177;28;20186;-74
2023/09/12 09:31:34;;;;;;;9.87;8.70;;;28.80;99.90;;;;;;5090531;28;20257;-73
2023/09/12 09:34:01;;;;;;;11.63;9.60;;;29.10;99.90;;;;;;5090392;28;21062;-74
2023/09/12 09:36:27;;;;;;;18.63;9.70;;;29.40;99.90;;;;;;5090048;28;20876;-73
2023/09/12 09:38:53;;;;;;;12.27;8.43;;;30.00;99.90;;;;;;5090164;28;20757;-73
2023/09/12 09:41:22;;;;;;;8.63;7.40;;;30.20;96.20;;;;;;5072200;28;20416;-74
2023/09/12 09:43:52;;;;;;;13.10;8.10;;;30.50;92.00;;;;;;5072067;28;20440;-75
2023/09/12 09:46:18;;;;;;;13.10;7.63;;;30.70;91.30;;;;;;5089951;28;20412;-73
2023/09/12 09:48:51;;;;;;;13.10;7.83;;;31.00;90.70;;;;;;5090007;28;20414;-74
2023/09/12 09:51:17;;;;;;;8.93;7.37;;;31.20;91.40;;;;;;5089664;28;20455;-73
2023/09/12 09:53:43;;;;;;;9.90;7.43;;;31.60;90.10;;;;;;5089890;28;20436;-74
2023/09/12 09:56:13;;;;;;;9.60;7.33;;;31.80;84.40;;;;;;5071303;28;20460;-73
2023/09/12 09:58:49;;;;;;;11.13;7.60;;;32.10;87.80;;;;;;5089817;28;20454;-74
2023/09/12 10:01:23;;;;;;;10.03;7.03;;;32.10;77.60;;;;;;5090034;28;20446;-73
2023/09/12 10:03:50;;;;;;;8.30;7.50;;;32.50;80.90;;;;;;5089824;28;20424;-73
2023/09/12 10:06:17;;;;;;;9.20;7.17;;;32.80;82.50;;;;;;5055198;28;20427;-73
2023/09/12 10:08:46;;;;;;;9.23;6.60;;;33.10;99.90;;;;;;5090430;28;21051;-72
2023/09/12 10:11:17;;;;;;;7.10;6.40;;;33.40;92.20;;;;;;5071925;28;20463;-73
2023/09/12 10:13:55;;;;;;;8.77;6.53;;;33.40;99.90;;;;;;5090335;28;20440;-73
2023/09/12 10:16:29;;;;;;;7.70;6.90;;;33.40;99.90;;;;;;5071963;28;20499;-72
2023/09/12 10:19:19;;;;;;;7.87;6.40;;;33.70;99.90;;;;;;5090242;28;20401;-73
2023/09/12 10:21:50;;;;;;;7.30;6.60;;;33.90;99.90;;;;;;5089696;28;20451;-74
2023/09/12 10:24:16;;;;;;;9.10;6.80;;;34.00;99.90;;;;;;5089784;28;20528;-73
2023/09/12 10:40:54;;;;;;;9.47;6.47;;;33.10;99.90;;;;;;5089454;28;20415;-76
2023/09/12 10:43:21;;;;;;;7.80;6.60;;;33.40;99.90;;;;;;5069855;28;20432;-76
2023/09/12 10:45:48;;;;;;;11.30;7.10;;;32.90;99.90;;;;;;5088351;28;20922;-76
2023/09/12 10:48:14;;;;;;;11.17;6.93;;;32.50;99.90;;;;;;5088115;28;20421;-75
2023/09/12 10:50:40;;;;;;;7.60;6.90;;;32.20;99.90;;;;;;5087944;28;20432;-74
2023/09/12 10:53:14;;;;;;;9.43;6.70;;;32.00;99.90;;;;;;5087464;28;20206;-73
2023/09/12 10:55:40;;;;;;;13.83;6.90;;;31.80;99.90;;;;;;5069439;28;20451;-73
2023/09/12 10:58:08;;;;;;;9.60;6.30;;;31.60;99.90;;;;;;5087699;28;20420;-74
2023/09/12 11:00:34;;;;;;;9.47;6.77;;;31.50;99.90;;;;;;5087868;28;21145;-73
2023/09/12 11:03:29;;;;;;;10.20;7.37;;;31.40;99.90;;;;;;5087563;28;20436;-74
2023/09/12 11:05:55;;;;;;;9.87;7.43;;;31.30;99.90;;;;;;5076254;28;20201;-74
2023/09/12 11:08:22;;;;;;;13.67;7.37;;;31.30;99.90;;;;;;5087777;28;20457;-74
2023/09/12 11:11:18;;;;;;;9.13;6.53;;;31.20;99.90;;;;;;5052596;28;20460;-75
2023/09/12 11:13:45;;;;;;;9.73;7.37;;;31.20;99.90;;;;;;5087934;28;20424;-75
2023/09/12 11:16:17;;;;;;;8.07;7.27;;;31.20;99.90;;;;;;5087590;28;20472;-74
2023/09/12 11:19:19;;;;;;;10.30;6.90;;;31.20;99.90;;;;;;5087666;28;20415;-74
2023/09/12 11:21:50;;;;;;;7.40;6.50;;;31.10;99.90;;;;;;5087617;28;20508;-74
2023/09/12 11:24:16;;;;;;;11.03;6.80;;;31.00;92.60;;;;;;5052749;28;20463;-75
2023/09/12 11:26:58;;;;;;;9.07;6.90;;;31.10;77.80;;;;;;5069583;28;20435;-72
2023/09/12 11:29:35;;;;;;;9.73;7.93;;;31.10;86.70;;;;;;5069928;28;20425;-73
2023/09/12 11:32:04;;;;;;;8.23;7.07;;;31.20;82.70;;;;;;5088053;28;20408;-72
2023/09/12 11:34:37;;;;;;;14.73;6.70;;;31.20;84.50;;;;;;5069464;28;20452;-71
2023/09/12 11:37:04;;;;;;;9.13;7.33;;;31.20;80.50;;;;;;5088065;28;20529;-72
2023/09/12 11:39:32;;;;;;;7.40;6.70;;;31.20;98.50;;;;;;5087900;28;20404;-74
2023/09/12 11:41:59;;;;;;;9.80;7.07;;;31.10;80.50;;;;;;5069739;28;20416;-73
2023/09/12 11:44:26;;;;;;;8.30;6.53;;;31.10;85.40;;;;;;5088009;28;21286;-74
2023/09/12 11:46:52;;;;;;;10.43;7.50;;;31.20;90.00;;;;;;5069467;28;20925;-73
2023/09/12 11:49:19;;;;;;;7.30;6.50;;;31.10;80.30;;;;;;5087986;28;20424;-74
2023/09/12 11:51:51;;;;;;;7.57;6.80;;;31.20;77.40;;;;;;5069805;28;20848;-74
2023/09/12 11:54:20;;;;;;;11.93;7.07;;;31.20;77.00;;;;;;5087584;28;20428;-74
2023/09/12 11:56:48;;;;;;;13.17;7.20;;;31.20;85.30;;;;;;5069379;28;20506;-75
2023/09/12 11:59:15;;;;;;;7.13;6.43;;;31.20;80.90;;;;;;5069182;28;20427;-73
2023/09/12 12:01:40;;;;;;;16.80;6.47;;;31.10;83.50;;;;;;5087405;28;20446;-75
2023/09/12 12:04:07;;;;;;;14.93;7.80;;;30.80;80.70;;;;;;5068778;28;20445;-75
2023/09/12 12:06:34;;;;;;;13.23;7.57;;;30.70;78.60;;;;;;5090911;28;20442;-74
2023/09/12 12:08:59;;;;;;;9.43;6.90;;;30.80;79.10;;;;;;5072542;28;20455;-74
2023/09/12 12:11:28;;;;;;;9.73;7.57;;;30.90;91.80;;;;;;5091015;28;20953;-74
2023/09/12 12:13:54;;;;;;;7.87;6.73;;;30.80;84.50;;;;;;5090879;28;20284;-74
2023/09/12 12:16:19;;;;;;;8.70;7.10;;;30.80;94.90;;;;;;5072512;28;20468;-73
2023/09/12 12:18:45;;;;;;;9.50;7.20;;;30.80;92.40;;;;;;5090836;28;20216;-73
2023/09/12 12:21:11;;;;;;;11.00;7.37;;;30.80;93.70;;;;;;5090805;28;20182;-73
2023/09/12 12:23:37;;;;;;;8.60;6.13;;;30.80;85.90;;;;;;5072391;28;20440;-73
2023/09/12 12:26:05;;;;;;;9.20;6.97;;;30.80;94.90;;;;;;5091340;28;20420;-73
2023/09/12 12:28:31;;;;;;;7.33;6.63;;;30.80;88.20;;;;;;5091423;28;20189;-73
2023/09/12 12:30:57;;;;;;;8.60;6.30;;;30.90;90.30;;;;;;5091310;28;20425;-73
2023/09/12 12:33:22;;;;;;;8.47;7.20;;;30.90;93.30;;;;;;5073050;28;20428;-73
2023/09/12 12:35:49;;;;;;;10.73;6.80;;;30.80;90.70;;;;;;5072864;28;20233;-74
2023/09/12 12:38:15;;;;;;;11.73;6.63;;;30.90;79.10;;;;;;5056624;28;20186;-73
2023/09/12 12:40:41;;;;;;;8.30;6.90;;;31.00;76.30;;;;;;5072665;28;20434;-75
2023/09/12 12:43:17;;;;;;;7.43;6.60;;;31.10;78.50;;;;;;5091004;28;20202;-73
2023/09/12 12:45:53;;;;;;;9.50;7.83;;;31.10;79.40;;;;;;5072642;28;20231;-73
2023/09/12 12:48:32;;;;;;;7.63;6.90;;;31.10;76.30;;;;;;5091077;28;20411;-73
2023/09/12 12:50:59;;;;;;;8.90;7.60;;;31.20;85.50;;;;;;5072279;28;20440;-72
2023/09/12 12:53:41;;;;;;;8.17;7.30;;;31.20;78.30;;;;;;5090936;28;20535;-75